Time;durP1;ratioP1;P1;durP2;ratioP2;P2;SDS_P1;SDS_P2;PMS_P1;PMS_P2;Temp;Humidity;BMP_temperature;BMP_pressure;BME280_temperature;BME280_humidity;BME280_pressure;Samples;Min_cycle;Max_cycle;Signal;HPM_P1;HPM_P2
2023/05/22 00:00:37;;;;;;;12.77;8.68;;;;;;;;;;5032226;28;20045;-74
2023/05/22 00:03:07;;;;;;;10.27;8.88;;;;;;;;;;5032398;28;20064;-75
2023/05/22 00:05:39;;;;;;;12.23;9.35;;;;;;;;;;5032237;28;20036;-75
2023/05/22 00:08:10;;;;;;;13.15;10.20;;;;;;;;;;5031762;28;20037;-74
2023/05/22 00:10:37;;;;;;;10.07;8.88;;;;;;;;;;5031879;28;20025;-75
2023/05/22 00:13:03;;;;;;;13.77;9.43;;;;;;;;;;5031982;28;20403;-75
2023/05/22 00:15:29;;;;;;;13.60;10.23;;;;;;;;;;5031839;28;20029;-75
2023/05/22 00:17:55;;;;;;;10.40;8.70;;;;;;;;;;5029819;28;20025;-75
2023/05/22 00:20:22;;;;;;;12.15;9.23;;;;;;;;;;5036752;28;20403;-75
2023/05/22 00:22:48;;;;;;;11.13;9.38;;;;;;;;;;5051851;28;20495;-75
2023/05/22 00:25:16;;;;;;;11.68;9.57;;;;;;;;;;5051975;28;20502;-75
2023/05/22 00:27:42;;;;;;;12.85;8.90;;;;;;;;;;5051409;28;20453;-75
2023/05/22 00:30:08;;;;;;;10.77;9.50;;;;;;;;;;5033705;28;20029;-75
2023/05/22 00:32:34;;;;;;;10.52;9.43;;;;;;;;;;5051856;28;20019;-76
2023/05/22 00:35:00;;;;;;;12.60;9.30;;;;;;;;;;5052054;28;20078;-75
2023/05/22 00:37:26;;;;;;;10.70;8.48;;;;;;;;;;5051129;28;20028;-75
2023/05/22 00:39:52;;;;;;;10.25;8.95;;;;;;;;;;5051564;28;20033;-75
2023/05/22 00:42:21;;;;;;;12.05;9.68;;;;;;;;;;5051883;28;20032;-76
2023/05/22 00:44:47;;;;;;;14.25;9.68;;;;;;;;;;5033286;28;20029;-75
2023/05/22 00:47:14;;;;;;;10.80;9.60;;;;;;;;;;5050742;28;20025;-75
2023/05/22 00:49:40;;;;;;;11.15;9.88;;;;;;;;;;5051258;28;20446;-75
2023/05/22 00:52:07;;;;;;;10.95;9.35;;;;;;;;;;5051104;28;20372;-75
2023/05/22 00:54:33;;;;;;;11.18;9.50;;;;;;;;;;5051365;28;20025;-76
2023/05/22 00:57:00;;;;;;;13.57;10.05;;;;;;;;;;5050832;28;20032;-75
2023/05/22 00:59:26;;;;;;;10.13;9.13;;;;;;;;;;5050861;28;20055;-75
2023/05/22 01:01:52;;;;;;;13.45;9.40;;;;;;;;;;5073724;23;20102;-72
2023/05/22 01:04:19;;;;;;;10.30;9.20;;;;;;;;;;5051787;28;20146;-73
2023/05/22 01:06:46;;;;;;;12.30;9.95;;;;;;;;;;5051137;28;20029;-73
2023/05/22 01:09:13;;;;;;;12.30;9.63;;;;;;;;;;5050466;28;20483;-73
2023/05/22 01:11:39;;;;;;;11.45;10.10;;;;;;;;;;5032888;28;20027;-73
2023/05/22 01:14:09;;;;;;;10.75;9.38;;;;;;;;;;5050968;28;20096;-73
2023/05/22 01:16:47;;;;;;;12.30;9.95;;;;;;;;;;5050965;28;20025;-73
2023/05/22 01:19:30;;;;;;;14.50;10.13;;;;;;;;;;5032278;28;20024;-75
2023/05/22 01:22:15;;;;;;;12.15;9.75;;;;;;;;;;5050888;28;20024;-74
2023/05/22 01:24:50;;;;;;;12.48;11.18;;;;;;;;;;5051038;28;20491;-74
2023/05/22 01:27:33;;;;;;;12.32;10.50;;;;;;;;;;5050123;28;20475;-73
2023/05/22 01:30:12;;;;;;;16.08;11.20;;;;;;;;;;5050883;28;20032;-73
2023/05/22 01:32:40;;;;;;;16.55;12.32;;;;;;;;;;5050970;28;20021;-74
2023/05/22 01:35:07;;;;;;;14.48;11.40;;;;;;;;;;5048361;28;20035;-74
2023/05/22 01:37:34;;;;;;;16.30;11.50;;;;;;;;;;5030157;28;20079;-73
2023/05/22 01:40:00;;;;;;;13.20;11.07;;;;;;;;;;5031248;28;20113;-73
2023/05/22 01:42:27;;;;;;;12.73;10.15;;;;;;;;;;5035012;28;20021;-74
2023/05/22 01:44:53;;;;;;;12.70;10.48;;;;;;;;;;5034954;28;20017;-74
2023/05/22 01:47:19;;;;;;;12.55;10.88;;;;;;;;;;5034172;28;20039;-74
2023/05/22 01:49:46;;;;;;;12.07;10.43;;;;;;;;;;5034742;28;20021;-72
2023/05/22 01:52:34;;;;;;;14.10;11.15;;;;;;;;;;5034561;28;20407;-72
2023/05/22 01:55:20;;;;;;;12.45;9.73;;;;;;;;;;5035026;28;20096;-74
2023/05/22 01:57:52;;;;;;;13.77;10.50;;;;;;;;;;5034125;28;20017;-74
2023/05/22 02:00:20;;;;;;;10.75;9.23;;;;;;;;;;5034326;28;20021;-74
2023/05/22 02:02:51;;;;;;;10.80;9.70;;;;;;;;;;5034794;28;20040;-72
2023/05/22 02:05:18;;;;;;;14.02;10.35;;;;;;;;;;5038372;28;20075;-73
2023/05/22 02:07:44;;;;;;;12.70;11.30;;;;;;;;;;5036374;28;20029;-73
2023/05/22 02:10:11;;;;;;;13.07;10.70;;;;;;;;;;5054285;28;20036;-73
2023/05/22 02:12:38;;;;;;;11.52;10.32;;;;;;;;;;5054576;28;20060;-74
2023/05/22 02:15:05;;;;;;;14.18;10.25;;;;;;;;;;5054425;28;20024;-73
2023/05/22 02:17:32;;;;;;;12.98;9.65;;;;;;;;;;5053927;28;20227;-73
2023/05/22 02:19:59;;;;;;;14.57;10.23;;;;;;;;;;5054802;28;20040;-73
2023/05/22 02:22:25;;;;;;;13.93;11.02;;;;;;;;;;5054737;28;20402;-73
2023/05/22 02:24:51;;;;;;;11.32;9.43;;;;;;;;;;5054972;28;20024;-73
2023/05/22 02:27:17;;;;;;;13.63;9.95;;;;;;;;;;5054137;28;20057;-72
2023/05/22 02:29:43;;;;;;;12.43;9.95;;;;;;;;;;5054445;28;20027;-73
2023/05/22 02:32:09;;;;;;;12.00;10.65;;;;;;;;;;5054335;28;20025;-73
2023/05/22 02:34:36;;;;;;;14.43;9.88;;;;;;;;;;5036462;28;20387;-73
2023/05/22 02:37:02;;;;;;;11.95;10.32;;;;;;;;;;5035248;28;20399;-73
2023/05/22 02:39:29;;;;;;;11.75;9.90;;;;;;;;;;5033680;28;20396;-74
2023/05/22 02:41:55;;;;;;;12.77;9.60;;;;;;;;;;5033696;28;20026;-73
2023/05/22 02:44:21;;;;;;;14.18;10.48;;;;;;;;;;5033854;28;20018;-73
2023/05/22 02:46:47;;;;;;;11.65;10.35;;;;;;;;;;5033644;28;20044;-73
2023/05/22 02:49:13;;;;;;;15.45;10.82;;;;;;;;;;5033039;28;20380;-73
2023/05/22 02:51:39;;;;;;;12.10;10.15;;;;;;;;;;5032596;28;20030;-73
2023/05/22 02:54:05;;;;;;;16.77;10.30;;;;;;;;;;5033503;28;20043;-73
2023/05/22 02:56:31;;;;;;;11.40;10.05;;;;;;;;;;5033541;28;20033;-73
2023/05/22 02:58:57;;;;;;;11.48;10.20;;;;;;;;;;5032359;28;20484;-73
2023/05/22 03:01:25;;;;;;;12.35;9.80;;;;;;;;;;5033176;28;20033;-73
2023/05/22 03:03:51;;;;;;;11.48;10.27;;;;;;;;;;5033429;28;20040;-74
2023/05/22 03:06:17;;;;;;;13.52;10.43;;;;;;;;;;5033251;28;20021;-73
2023/05/22 03:08:43;;;;;;;14.95;10.38;;;;;;;;;;5032687;28;20025;-75
2023/05/22 03:11:10;;;;;;;13.82;10.90;;;;;;;;;;5015422;28;20083;-74
2023/05/22 03:13:36;;;;;;;12.65;10.20;;;;;;;;;;5033128;28;20033;-74
2023/05/22 03:16:02;;;;;;;12.25;10.48;;;;;;;;;;5033257;28;20072;-74
2023/05/22 03:18:28;;;;;;;13.32;10.10;;;;;;;;;;5032527;28;20443;-74
2023/05/22 03:20:54;;;;;;;10.98;9.82;;;;;;;;;;5015325;28;20080;-73
2023/05/22 03:23:20;;;;;;;11.60;9.57;;;;;;;;;;5033114;28;20022;-74
2023/05/22 03:25:46;;;;;;;12.07;9.77;;;;;;;;;;5032976;28;20120;-74
2023/05/22 03:28:13;;;;;;;11.40;9.75;;;;;;;;;;5014110;28;20048;-74
2023/05/22 03:30:39;;;;;;;9.90;8.70;;;;;;;;;;5032780;28;20025;-74
2023/05/22 03:33:05;;;;;;;12.82;9.95;;;;;;;;;;5032886;28;20080;-74
2023/05/22 03:35:31;;;;;;;10.88;9.68;;;;;;;;;;5032696;28;20472;-74
2023/05/22 03:37:57;;;;;;;11.57;10.00;;;;;;;;;;5031875;28;20026;-74
2023/05/22 03:40:23;;;;;;;15.10;10.00;;;;;;;;;;5032523;28;20025;-74
2023/05/22 03:42:49;;;;;;;11.60;9.40;;;;;;;;;;5032437;28;20021;-74
2023/05/22 03:45:15;;;;;;;13.05;9.60;;;;;;;;;;5032939;28;20090;-74
2023/05/22 03:47:41;;;;;;;11.23;8.55;;;;;;;;;;5031677;28;20357;-73
2023/05/22 03:50:07;;;;;;;22.77;9.07;;;;;;;;;;5032370;28;20055;-74
2023/05/22 03:52:33;;;;;;;10.40;9.07;;;;;;;;;;5032432;28;20498;-74
2023/05/22 03:54:59;;;;;;;9.23;8.20;;;;;;;;;;5032416;28;20044;-74
2023/05/22 03:57:25;;;;;;;9.85;8.07;;;;;;;;;;5013762;28;20481;-74
2023/05/22 03:59:51;;;;;;;11.80;8.50;;;;;;;;;;5032418;28;20136;-74
2023/05/22 04:02:17;;;;;;;11.73;8.20;;;;;;;;;;5031952;28;20037;-74
2023/05/22 04:04:46;;;;;;;10.55;7.95;;;;;;;;;;5031745;28;20471;-74
2023/05/22 04:07:12;;;;;;;13.63;8.18;;;;;;;;;;5031519;28;20029;-74
2023/05/22 04:09:38;;;;;;;12.27;8.43;;;;;;;;;;5031723;28;20614;-74
2023/05/22 04:12:05;;;;;;;12.57;8.07;;;;;;;;;;5032289;28;20075;-74
2023/05/22 04:14:31;;;;;;;10.68;8.23;;;;;;;;;;5032404;28;20112;-74
2023/05/22 04:16:57;;;;;;;10.75;8.13;;;;;;;;;;5032390;28;20407;-74
2023/05/22 04:19:26;;;;;;;10.23;7.88;;;;;;;;;;5032011;28;20028;-74
2023/05/22 04:21:53;;;;;;;12.90;7.95;;;;;;;;;;5032557;28;20025;-74
2023/05/22 04:24:21;;;;;;;8.25;6.65;;;;;;;;;;5032319;28;20100;-74
2023/05/22 04:26:48;;;;;;;9.90;7.65;;;;;;;;;;5032294;28;20052;-74
2023/05/22 04:29:15;;;;;;;12.82;7.30;;;;;;;;;;5031590;28;20045;-74
2023/05/22 04:31:41;;;;;;;12.27;7.22;;;;;;;;;;5032077;28;20025;-74
2023/05/22 04:34:10;;;;;;;8.40;7.20;;;;;;;;;;5040456;28;20025;-74
2023/05/22 04:36:37;;;;;;;10.13;7.63;;;;;;;;;;5051708;28;20025;-74
2023/05/22 04:39:03;;;;;;;11.38;7.32;;;;;;;;;;5050992;28;20025;-75
2023/05/22 04:41:31;;;;;;;12.35;7.10;;;;;;;;;;5051614;28;20036;-75
2023/05/22 04:43:57;;;;;;;12.52;7.40;;;24.20;52.00;;;;;;5051596;28;20087;-75
2023/05/22 04:46:22;;;;;;;9.00;6.60;;;24.20;50.50;;;;;;5051774;28;20040;-75
2023/05/22 04:48:49;;;;;;;7.40;5.82;;;;;;;;;;5053668;28;20021;-74
2023/05/22 04:51:15;;;;;;;7.45;5.60;;;;;;;;;;5048743;28;20769;-74
2023/05/22 04:53:41;;;;;;;7.20;5.97;;;;;;;;;;5037302;28;20152;-73
2023/05/22 04:56:07;;;;;;;6.50;5.75;;;;;;;;;;5039136;28;20025;-74
2023/05/22 04:58:34;;;;;;;10.52;5.03;;;;;;;;;;5030962;28;20021;-74
2023/05/22 05:01:00;;;;;;;6.68;5.60;;;;;;;;;;5031634;28;20033;-75
2023/05/22 05:03:27;;;;;;;9.13;5.40;;;;;;;;;;5031393;28;20037;-75
2023/05/22 05:05:53;;;;;;;9.25;5.80;;;;;;;;;;5031155;28;20032;-75
2023/05/22 05:08:19;;;;;;;9.63;5.45;;;;;;;;;;5030504;28;20120;-75
2023/05/22 05:10:45;;;;;;;9.25;5.93;;;;;;;;;;5031109;28;20029;-75
2023/05/22 05:13:11;;;;;;;5.80;5.22;;;;;;;;;;5031370;28;20017;-74
2023/05/22 05:15:38;;;;;;;11.70;6.10;;;;;;;;;;5030287;28;20022;-75
2023/05/22 05:18:04;;;;;;;11.70;5.70;;;;;;;;;;5030177;28;20025;-75
2023/05/22 05:20:30;;;;;;;10.15;5.85;;;;;;;;;;5031093;28;20428;-75
2023/05/22 05:22:56;;;;;;;9.93;5.90;;;;;;;;;;5031151;28;20129;-75
2023/05/22 05:25:22;;;;;;;12.15;5.20;;;;;;;;;;5031044;28;20033;-75
2023/05/22 05:27:48;;;;;;;10.45;6.38;;;;;;;;;;5030350;28;20029;-75
2023/05/22 05:30:14;;;;;;;9.90;5.50;;;;;;;;;;5030589;28;20033;-74
2023/05/22 05:32:40;;;;;;;7.68;4.85;;;;;;;;;;5030952;28;20071;-75
2023/05/22 05:35:06;;;;;;;8.82;5.38;;;;;;;;;;5030737;28;20022;-74
2023/05/22 05:37:32;;;;;;;10.63;5.97;;;;;;;;;;5012166;28;20026;-74
2023/05/22 05:39:58;;;;;;;6.40;5.22;;;;;;;;;;5030910;28;20032;-74
2023/05/22 05:42:24;;;;;;;10.27;5.65;;;;;;;;;;5030482;28;20033;-74
2023/05/22 05:44:50;;;;;;;11.73;5.43;;;;;;;;;;5030928;28;20033;-74
2023/05/22 05:47:16;;;;;;;10.02;4.57;;;;;;;;;;5029936;28;20426;-74
2023/05/22 05:49:42;;;;;;;12.85;5.45;;;;;;;;;;5030520;28;20033;-75
2023/05/22 05:52:08;;;;;;;10.18;5.38;;;;;;;;;;5030521;28;20104;-75
2023/05/22 05:54:34;;;;;;;6.53;5.10;;;26.20;45.20;;;;;;5030390;28;20428;-75
2023/05/22 05:57:00;;;;;;;6.60;5.47;;;25.70;47.00;;;;;;5029972;28;20132;-74
2023/05/22 05:59:25;;;;;;;9.20;5.10;;;25.50;47.10;;;;;;5030262;28;20471;-74
2023/05/22 06:01:51;;;;;;;7.43;4.70;;;25.70;46.10;;;;;;5030469;28;20044;-75
2023/05/22 06:04:16;;;;;;;11.32;5.07;;;26.10;46.40;;;;;;5030269;28;20101;-74
2023/05/22 06:06:43;;;;;;;9.43;5.00;;;26.70;44.70;;;;;;5011580;28;20025;-75
2023/05/22 06:09:09;;;;;;;5.97;4.57;;;26.70;44.70;;;;;;5028778;28;20017;-75
2023/05/22 06:11:34;;;;;;;8.25;5.22;;;27.20;43.50;;;;;;5029894;28;20109;-73
2023/05/22 06:14:04;;;;;;;8.85;5.03;;;26.90;43.00;;;;;;5029724;28;20060;-74
2023/05/22 06:16:30;;;;;;;9.20;5.00;;;;;;;;;;5012530;28;20029;-75
2023/05/22 06:18:57;;;;;;;11.90;5.20;;;26.30;45.00;;;;;;5028291;28;20491;-75
2023/05/22 06:21:23;;;;;;;9.20;5.00;;;26.30;44.40;;;;;;5029561;28;20040;-75
2023/05/22 06:23:49;;;;;;;9.32;5.40;;;26.20;44.90;;;;;;5029671;28;20022;-75
2023/05/22 06:26:16;;;;;;;8.32;5.13;;;27.20;43.90;;;;;;5030779;28;20025;-76
2023/05/22 06:28:42;;;;;;;8.77;5.07;;;;;;;;;;5033554;28;20022;-76
2023/05/22 06:31:10;;;;;;;7.57;4.55;;;29.00;39.80;;;;;;5050924;28;20036;-75
2023/05/22 06:33:36;;;;;;;10.35;6.07;;;29.40;39.00;;;;;;5052224;28;20021;-75
2023/05/22 06:36:07;;;;;;;7.90;4.22;;;29.60;38.60;;;;;;5051898;28;20037;-76
2023/05/22 06:38:33;;;;;;;6.68;4.85;;;29.60;39.00;;;;;;5051490;28;20078;-75
2023/05/22 06:40:59;;;;;;;9.73;4.72;;;30.80;36.50;;;;;;5051575;28;20111;-75
2023/05/22 06:43:24;;;;;;;9.85;4.40;;;30.80;36.40;;;;;;5052244;28;20506;-76
2023/05/22 06:45:50;;;;;;;11.85;4.80;;;30.80;36.10;;;;;;5051974;28;20773;-75
2023/05/22 06:48:16;;;;;;;5.43;4.05;;;30.90;36.60;;;;;;5052448;28;20025;-76
2023/05/22 06:50:41;;;;;;;10.02;4.40;;;31.90;34.70;;;;;;5053641;28;20025;-76
2023/05/22 06:53:07;;;;;;;8.45;4.35;;;31.10;35.70;;;;;;5053567;28;20029;-76
2023/05/22 06:55:32;;;;;;;10.90;4.40;;;31.10;36.40;;;;;;5053301;28;20094;-76
2023/05/22 06:57:58;;;;;;;12.50;4.75;;;31.00;35.40;;;;;;5052767;28;20025;-76
2023/05/22 07:03:06;;;;;;;6.22;4.22;;;30.90;35.80;;;;;;5050914;28;20053;-75
2023/05/22 07:05:48;;;;;;;9.30;4.88;;;;;;;;;;5054926;28;20056;-78
2023/05/22 07:08:19;;;;;;;10.98;4.30;;;30.80;34.80;;;;;;5052725;28;20032;-77
2023/05/22 07:10:45;;;;;;;9.82;4.20;;;31.00;35.20;;;;;;5054762;28;20033;-78
2023/05/22 07:13:14;;;;;;;7.15;3.88;;;31.00;34.30;;;;;;5055814;28;20078;-78
2023/05/22 07:15:42;;;;;;;6.53;4.60;;;31.40;34.20;;;;;;5053026;28;20033;-77
2023/05/22 07:18:14;;;;;;;9.35;4.50;;;32.40;32.90;;;;;;5035704;28;20508;-78
2023/05/22 07:20:44;;;;;;;5.63;4.03;;;32.30;32.90;;;;;;5054234;28;20095;-78
2023/05/22 07:23:10;;;;;;;7.68;3.92;;;33.20;32.80;;;;;;5054260;28;20032;-78
2023/05/22 07:25:41;;;;;;;5.72;3.90;;;34.20;31.00;;;;;;5054543;28;20121;-79
2023/05/22 07:28:07;;;;;;;6.68;3.65;;;35.20;30.70;;;;;;5053445;28;20075;-79
2023/05/22 07:30:35;;;;;;;7.10;3.70;;;36.50;28.80;;;;;;5056179;28;20398;-78
2023/05/22 07:33:07;;;;;;;7.72;3.70;;;37.40;26.90;;;;;;5042152;28;20021;-78
2023/05/22 07:35:33;;;;;;;9.30;4.60;;;38.10;25.90;;;;;;5039771;28;20044;-78
2023/05/22 07:38:00;;;;;;;6.95;3.90;;;;;;;;;;5053384;28;20075;-78
2023/05/22 07:40:26;;;;;;;8.13;3.97;;;34.80;27.80;;;;;;5054410;28;20131;-78
2023/05/22 07:42:51;;;;;;;5.82;3.50;;;32.90;30.00;;;;;;5054562;28;20127;-78
2023/05/22 07:45:17;;;;;;;7.93;3.80;;;32.40;30.30;;;;;;5054413;28;20025;-78
2023/05/22 07:47:43;;;;;;;11.00;3.85;;;31.50;32.90;;;;;;5053815;28;20025;-78
2023/05/22 07:50:09;;;;;;;6.53;4.20;;;;;;;;;;5037223;28;20032;-78
2023/05/22 07:52:34;;;;;;;6.88;4.07;;;30.80;34.40;;;;;;5054501;28;20114;-78
2023/05/22 07:55:01;;;;;;;9.18;4.00;;;30.90;33.50;;;;;;5054097;28;20111;-77
2023/05/22 07:57:28;;;;;;;6.28;3.50;;;31.40;32.40;;;;;;5054850;28;20029;-78
2023/05/22 07:59:58;;;;;;;9.05;3.88;;;32.00;32.00;;;;;;5036247;28;20060;-78
2023/05/22 08:02:23;;;;;;;7.25;3.40;;;31.50;31.70;;;;;;5053742;28;20067;-78
2023/05/22 08:04:49;;;;;;;7.97;3.58;;;32.00;31.20;;;;;;5054473;28;20025;-78
2023/05/22 08:07:14;;;;;;;7.07;3.67;;;31.50;31.70;;;;;;5053277;28;20028;-78
2023/05/22 08:09:40;;;;;;;4.78;3.80;;;31.00;32.70;;;;;;5054168;28;20053;-78
2023/05/22 08:12:07;;;;;;;6.32;3.35;;;;;;;;;;5053403;28;20021;-78
2023/05/22 08:14:32;;;;;;;5.63;3.88;;;29.60;35.20;;;;;;5035543;28;20027;-78
2023/05/22 08:16:59;;;;;;;5.68;3.92;;;29.70;34.70;;;;;;5053637;28;20479;-78
2023/05/22 08:19:25;;;;;;;5.38;3.83;;;29.40;34.70;;;;;;5053502;28;20032;-78
2023/05/22 08:21:56;;;;;;;5.28;3.78;;;28.40;36.20;;;;;;5057789;28;20024;-77
2023/05/22 08:24:27;;;;;;;4.75;3.67;;;;;;;;;;5042595;28;20024;-76
2023/05/22 08:26:57;;;;;;;7.57;4.28;;;28.50;36.00;;;;;;5057087;28;20025;-76
2023/05/22 08:29:22;;;;;;;5.43;3.30;;;29.40;35.00;;;;;;5053989;28;20021;-76
2023/05/22 08:31:48;;;;;;;5.32;3.60;;;30.90;33.00;;;;;;5055564;28;20557;-77
2023/05/22 08:34:14;;;;;;;6.13;3.17;;;31.50;31.40;;;;;;5053946;28;20115;-77
2023/05/22 08:36:40;;;;;;;6.80;3.30;;;31.10;30.30;;;;;;5035827;28;20021;-77
2023/05/22 08:39:07;;;;;;;7.38;3.30;;;30.00;33.00;;;;;;5052599;28;20043;-77
2023/05/22 08:41:35;;;;;;;5.75;3.40;;;30.50;32.20;;;;;;5034790;28;20025;-77
2023/05/22 08:44:01;;;;;;;4.93;3.30;;;30.80;30.70;;;;;;5052582;28;20036;-77
2023/05/22 08:46:29;;;;;;;5.30;2.95;;;31.00;29.60;;;;;;5052679;28;20438;-77
2023/05/22 08:48:56;;;;;;;3.45;2.67;;;30.90;30.40;;;;;;5032929;28;20124;-77
2023/05/22 08:51:27;;;;;;;5.43;3.25;;;31.10;29.90;;;;;;5051077;28;20025;-78
2023/05/22 08:53:55;;;;;;;5.80;3.25;;;31.50;29.00;;;;;;5035720;28;20025;-78
2023/05/22 08:56:21;;;;;;;8.95;2.88;;;30.90;28.20;;;;;;5054190;28;20032;-77
2023/05/22 08:58:47;;;;;;;4.10;2.97;;;30.80;29.00;;;;;;5052811;28;20025;-77
2023/05/22 09:01:13;;;;;;;5.70;3.20;;;29.80;29.90;;;;;;5053709;28;20171;-78
2023/05/22 09:03:41;;;;;;;5.05;2.97;;;29.20;31.40;;;;;;5052283;28;20064;-78
2023/05/22 09:06:09;;;;;;;6.63;3.05;;;30.10;29.70;;;;;;5034451;28;20082;-78
2023/05/22 09:08:35;;;;;;;5.95;2.78;;;30.90;29.40;;;;;;5051874;28;20045;-77
2023/05/22 09:11:01;;;;;;;4.15;3.28;;;32.00;28.10;;;;;;5052311;28;20394;-78
2023/05/22 09:13:28;;;;;;;3.05;2.72;;;31.50;28.20;;;;;;5034274;28;20032;-78
2023/05/22 09:16:12;;;;;;;9.32;3.10;;;31.30;27.50;;;;;;5052615;28;20025;-78
2023/05/22 09:18:38;;;;;;;5.20;3.30;;;30.70;29.00;;;;;;5052098;28;20479;-78
2023/05/22 09:21:05;;;;;;;7.25;3.20;;;31.60;28.40;;;;;;5053999;28;20047;-78
2023/05/22 09:23:31;;;;;;;4.82;3.10;;;32.70;27.60;;;;;;5053762;28;20056;-78
2023/05/22 09:25:58;;;;;;;5.53;2.92;;;32.90;27.30;;;;;;5034824;28;20032;-78
2023/05/22 09:28:24;;;;;;;4.95;2.90;;;32.70;27.60;;;;;;5052221;28;20033;-78
2023/05/22 09:30:51;;;;;;;5.60;3.72;;;32.70;27.80;;;;;;5052791;28;20044;-78
2023/05/22 09:33:18;;;;;;;6.20;2.97;;;32.40;28.20;;;;;;5052069;28;20032;-77
2023/05/22 09:35:48;;;;;;;3.90;3.00;;;32.70;27.60;;;;;;5051501;28;20495;-78
2023/05/22 09:38:14;;;;;;;3.93;2.70;;;32.60;28.00;;;;;;5050957;28;20025;-78
2023/05/22 09:40:40;;;;;;;4.45;2.92;;;32.70;28.10;;;;;;5033360;28;20487;-78
2023/05/22 09:43:10;;;;;;;6.38;3.10;;;32.50;28.10;;;;;;5052153;28;20025;-78
2023/05/22 09:45:37;;;;;;;8.80;3.28;;;32.90;29.50;;;;;;5034384;28;20021;-77
2023/05/22 09:48:04;;;;;;;5.63;3.60;;;;;;;;;;5050518;28;20571;-78
2023/05/22 09:50:30;;;;;;;8.70;3.80;;;32.80;29.00;;;;;;5051228;28;20017;-78
2023/05/22 09:52:59;;;;;;;5.82;3.55;;;30.70;33.10;;;;;;5051802;28;20045;-78
2023/05/22 09:55:26;;;;;;;6.15;3.70;;;30.40;33.20;;;;;;5032765;28;20048;-78
2023/05/22 09:57:53;;;;;;;6.65;4.15;;;30.10;33.60;;;;;;5050477;28;20052;-78
2023/05/22 10:00:19;;;;;;;10.20;3.97;;;;;;;;;;5050386;28;20479;-77
2023/05/22 10:02:46;;;;;;;9.00;4.32;;;;;;;;;;5036691;28;20471;-78
2023/05/22 10:05:22;;;;;;;6.22;4.25;;;;;;;;;;5055513;28;20036;-77
2023/05/22 10:08:04;;;;;;;6.20;4.32;;;;;;;;;;5036840;28;20032;-77
2023/05/22 10:10:31;;;;;;;6.57;3.58;;;;;;;;;;5036937;28;20028;-77
2023/05/22 10:13:00;;;;;;;6.65;4.43;;;;;;;;;;5036870;28;20089;-78
2023/05/22 10:15:26;;;;;;;4.55;4.05;;;;;;;;;;5036862;28;20032;-77
2023/05/22 10:17:52;;;;;;;4.25;3.83;;;;;;;;;;5054571;28;20405;-78
2023/05/22 10:20:19;;;;;;;10.68;3.92;;;;;;;;;;5055506;28;20094;-78
2023/05/22 10:22:47;;;;;;;6.97;3.55;;;;;;;;;;5037169;28;20021;-77
2023/05/22 10:25:13;;;;;;;4.75;4.10;;;;;;;;;;5055097;28;20059;-77
2023/05/22 10:27:40;;;;;;;9.23;4.00;;;;;;;;;;5054659;28;20071;-77
2023/05/22 10:30:21;;;;;;;4.53;3.70;;;;;;;;;;5055065;28;20017;-77
2023/05/22 10:32:47;;;;;;;;;;;;;;;;;;5057169;28;20017;-78
2023/05/22 10:35:21;;;;;;;6.07;3.92;;;;;;;;;;5047036;28;19905;-77
2023/05/22 10:37:49;;;;;;;10.75;4.05;;;;;;;;;;5064806;28;20033;-77
2023/05/22 10:40:19;;;;;;;7.25;3.88;;;;;;;;;;5055413;28;20399;-76
2023/05/22 10:42:45;;;;;;;4.20;3.30;;;;;;;;;;5056580;28;20029;-76
2023/05/22 10:45:12;;;;;;;4.10;3.60;;;;;;;;;;5052146;28;20467;-77
2023/05/22 10:47:38;;;;;;;5.20;3.20;;;;;;;;;;5053052;28;20025;-77
2023/05/22 10:50:04;;;;;;;11.25;4.13;;;;;;;;;;5053576;28;20545;-77
2023/05/22 10:52:30;;;;;;;6.10;3.60;;;;;;;;;;5053995;28;20433;-77
2023/05/22 10:54:59;;;;;;;7.30;3.30;;;;;;;;;;5055082;28;20104;-76
2023/05/22 10:57:25;;;;;;;7.63;3.83;;;;;;;;;;5055221;28;20032;-77
2023/05/22 11:00:06;;;;;;;7.80;3.47;;;;;;;;;;5056033;28;20021;-78
2023/05/22 11:02:36;;;;;;;7.15;3.67;;;;;;;;;;5055085;28;20029;-77
2023/05/22 11:05:20;;;;;;;7.95;3.47;;;;;;;;;;5054044;28;20029;-76
2023/05/22 11:07:46;;;;;;;8.68;4.05;;;;;;;;;;5052848;28;20502;-76
2023/05/22 11:10:13;;;;;;;7.75;4.25;;;;;;;;;;5054328;28;20036;-76
2023/05/22 11:12:40;;;;;;;4.43;3.38;;;;;;;;;;5055276;28;20475;-77
2023/05/22 11:15:06;;;;;;;8.40;3.25;;;;;;;;;;5055626;28;20029;-78
2023/05/22 11:17:32;;;;;;;5.38;3.38;;;;;;;;;;5054394;28;20025;-76
2023/05/22 11:19:58;;;;;;;8.93;3.67;;;;;;;;;;5036137;28;20386;-76
2023/05/22 11:22:29;;;;;;;5.60;3.42;;;;;;;;;;5036828;28;20413;-76
2023/05/22 11:24:55;;;;;;;7.70;3.28;;;;;;;;;;5034936;28;20395;-77
2023/05/22 11:27:21;;;;;;;6.60;3.22;;;;;;;;;;5039638;28;20054;-76
2023/05/22 11:29:48;;;;;;;8.27;3.50;;;;;;;;;;5042531;28;20112;-76
2023/05/22 11:32:19;;;;;;;5.63;3.17;;;;;;;;;;5034120;28;20571;-76
2023/05/22 11:34:51;;;;;;;6.15;3.00;;;;;;;;;;5033604;28;20039;-76
2023/05/22 11:37:17;;;;;;;8.35;3.15;;;;;;;;;;5033205;28;20033;-76
2023/05/22 11:39:49;;;;;;;4.57;3.03;;;;;;;;;;5033966;28;20025;-76
2023/05/22 11:42:17;;;;;;;10.25;3.63;;;;;;;;;;5015329;28;20112;-77
2023/05/22 11:44:43;;;;;;;7.50;3.35;;;;;;;;;;5034007;28;20029;-78
2023/05/22 11:47:09;;;;;;;6.28;3.30;;;;;;;;;;5033189;28;20029;-77
2023/05/22 11:49:35;;;;;;;4.90;3.10;;;;;;;;;;5033479;28;20059;-77
2023/05/22 11:52:10;;;;;;;5.72;3.83;;;;;;;;;;5033075;28;20410;-77
2023/05/22 11:54:36;;;;;;;6.78;3.63;;;;;;;;;;5033853;28;20029;-76
2023/05/22 11:57:08;;;;;;;12.02;3.97;;;;;;;;;;5032859;28;20490;-77
2023/05/22 11:59:35;;;;;;;7.82;3.30;;;;;;;;;;5034429;28;20399;-76
2023/05/22 12:02:03;;;;;;;4.43;3.20;;;;;;;;;;5034740;28;20038;-77
2023/05/22 12:04:29;;;;;;;5.03;2.97;;;;;;;;;;5033954;28;20052;-77
2023/05/22 12:06:55;;;;;;;5.95;3.60;;;;;;;;;;5033120;28;20079;-77
2023/05/22 12:09:22;;;;;;;8.88;3.40;;;;;;;;;;5036078;28;20037;-77
2023/05/22 12:11:48;;;;;;;8.57;3.42;;;;;;;;;;5040642;28;20028;-77
2023/05/22 12:14:15;;;;;;;6.28;3.40;;;;;;;;;;5037525;28;20021;-76
2023/05/22 12:16:41;;;;;;;8.40;3.67;;;;;;;;;;5017087;28;20030;-77
2023/05/22 12:19:07;;;;;;;6.63;3.20;;;;;;;;;;5017956;28;20024;-77
2023/05/22 12:21:35;;;;;;;8.60;3.20;;;;;;;;;;5034421;28;20060;-76
2023/05/22 12:24:05;;;;;;;7.50;3.90;;;;;;;;;;5033262;28;20099;-77
2023/05/22 12:26:34;;;;;;;5.93;3.20;;;;;;;;;;5034376;28;20026;-77
2023/05/22 12:29:00;;;;;;;6.03;3.17;;;;;;;;;;5016062;28;20053;-76
2023/05/22 12:31:26;;;;;;;6.50;3.53;;;;;;;;;;5035814;28;20029;-80
2023/05/22 12:33:53;;;;;;;5.05;3.05;;;;;;;;;;5032632;28;20028;-77
2023/05/22 12:36:19;;;;;;;8.38;3.30;;;;;;;;;;5045964;28;20033;-77
2023/05/22 12:38:46;;;;;;;6.20;3.50;;;;;;;;;;5031732;28;20271;-77
2023/05/22 12:41:12;;;;;;;8.18;3.65;;;;;;;;;;5032483;28;20033;-77
2023/05/22 12:43:38;;;;;;;9.18;3.30;;;;;;;;;;5032329;28;20092;-77
2023/05/22 12:46:04;;;;;;;11.77;3.70;;;;;;;;;;5033520;28;20475;-77
2023/05/22 12:48:30;;;;;;;9.70;3.47;;;;;;;;;;5032911;28;20032;-77
2023/05/22 12:50:56;;;;;;;5.10;3.40;;;;;;;;;;5033182;28;20026;-75
2023/05/22 12:53:22;;;;;;;8.25;3.38;;;;;;;;;;5032372;28;20022;-77
2023/05/22 12:55:48;;;;;;;8.63;3.42;;;;;;;;;;5033161;28;20033;-77
2023/05/22 12:58:43;;;;;;;6.55;3.22;;;;;;;;;;5032442;28;20018;-77
2023/05/22 13:01:09;;;;;;;6.20;3.50;;;;;;;;;;5070015;23;20052;-74
2023/05/22 13:03:35;;;;;;;7.75;3.30;;;;;;;;;;4991807;28;20132;-75
2023/05/22 13:06:01;;;;;;;5.97;3.53;;;;;;;;;;5011672;28;20025;-75
2023/05/22 13:08:27;;;;;;;4.10;3.28;;;;;;;;;;4993237;28;20033;-75
2023/05/22 13:10:53;;;;;;;6.25;3.92;;;;;;;;;;4993785;28;20038;-75
2023/05/22 13:13:19;;;;;;;6.22;3.35;;;;;;;;;;5011259;28;20033;-76
2023/05/22 13:15:45;;;;;;;7.38;3.72;;;;;;;;;;5008612;28;20033;-75
2023/05/22 13:18:11;;;;;;;7.72;3.90;;;;;;;;;;5009663;28;20033;-75
2023/05/22 13:20:37;;;;;;;4.97;3.58;;;;;;;;;;5029510;28;20022;-76
2023/05/22 13:23:03;;;;;;;4.68;3.67;;;;;;;;;;5029296;28;20072;-75
2023/05/22 13:25:30;;;;;;;6.85;3.60;;;;;;;;;;5029072;28;20502;-75
2023/05/22 13:27:57;;;;;;;11.93;4.20;;;;;;;;;;5028665;28;20030;-76
2023/05/22 13:30:23;;;;;;;11.48;3.50;;;;;;;;;;5029125;28;20057;-76
2023/05/22 13:32:48;;;;;;;5.18;3.88;;;;;;;;;;5029257;28;20083;-76
2023/05/22 13:35:15;;;;;;;6.25;3.72;;;;;;;;;;5029443;28;20412;-76
2023/05/22 13:37:41;;;;;;;6.20;3.05;;;;;;;;;;5033727;28;20018;-76
2023/05/22 13:40:07;;;;;;;8.35;3.88;;;;;;;;;;5018095;28;20033;-76
2023/05/22 13:42:33;;;;;;;5.93;3.38;;;;;;;;;;5035127;28;20496;-76
2023/05/22 13:44:59;;;;;;;9.60;3.42;;;;;;;;;;5035580;28;20059;-75
2023/05/22 13:47:25;;;;;;;4.60;3.40;;;;;;;;;;5034762;28;20045;-76
2023/05/22 13:49:51;;;;;;;6.15;3.67;;;;;;;;;;5035466;28;20033;-76
2023/05/22 13:52:17;;;;;;;6.55;3.65;;;;;;;;;;5035504;28;20037;-76
2023/05/22 13:54:43;;;;;;;5.60;3.00;;;;;;;;;;5036100;28;20052;-75
2023/05/22 13:57:10;;;;;;;4.50;3.10;;;;;;;;;;5017029;28;20021;-76
2023/05/22 13:59:35;;;;;;;6.47;3.65;;;;;;;;;;5035217;28;20029;-75
2023/05/22 14:02:02;;;;;;;9.05;3.95;;;;;;;;;;5035705;28;20107;-75
2023/05/22 14:04:28;;;;;;;6.07;3.67;;;;;;;;;;5034933;28;20035;-75